Time;durP1;ratioP1;P1;durP2;ratioP2;P2;SDS_P1;SDS_P2;PMS_P1;PMS_P2;Temp;Humidity;BMP_temperature;BMP_pressure;BME280_temperature;BME280_humidity;BME280_pressure;Samples;Min_cycle;Max_cycle;Signal;HPM_P1;HPM_P2
2023/12/26 00:00:26;;;;;;;7.10;5.30;;;;;;;8.00;100.00;97115.45;106551;1262;24369;-77
2023/12/26 00:03:14;;;;;;;6.50;5.30;;;;;;;8.02;100.00;97109.78;106535;1281;22535;-76
2023/12/26 00:05:42;;;;;;;5.10;4.40;;;;;;;8.03;100.00;97115.50;106647;1272;22557;-75
2023/12/26 00:08:10;;;;;;;5.80;4.90;;;;;;;8.05;100.00;97111.05;106316;1283;24864;-76
2023/12/26 00:10:38;;;;;;;5.70;4.30;;;;;;;8.06;100.00;97111.50;106213;1283;22591;-76
2023/12/26 00:13:06;;;;;;;5.80;4.70;;;;;;;8.10;100.00;97107.65;106292;1284;24208;-76
2023/12/26 00:15:34;;;;;;;5.70;4.90;;;;;;;8.12;100.00;97105.80;106242;1284;22534;-76
2023/12/26 00:18:02;;;;;;;4.70;4.20;;;;;;;8.13;100.00;97105.94;106137;1273;24371;-76
2023/12/26 00:20:31;;;;;;;5.50;4.10;;;;;;;8.13;100.00;97098.11;106178;1270;22667;-76
2023/12/26 00:22:59;;;;;;;5.20;3.90;;;;;;;8.14;100.00;97097.65;106180;1284;22656;-77
2023/12/26 00:25:27;;;;;;;5.90;4.50;;;;;;;8.17;100.00;97099.09;106214;1281;26346;-79
2023/12/26 00:27:55;;;;;;;5.30;4.50;;;;;;;8.16;100.00;97097.91;106563;1275;24408;-76
2023/12/26 00:30:22;;;;;;;6.20;5.00;;;;;;;8.17;100.00;97096.98;106208;1273;22668;-75
2023/12/26 00:32:51;;;;;;;6.10;4.10;;;;;;;8.19;100.00;97094.56;106211;1272;24235;-75
2023/12/26 00:35:19;;;;;;;4.50;3.80;;;;;;;8.23;100.00;97103.58;106172;1282;25435;-75
2023/12/26 00:37:47;;;;;;;6.00;4.70;;;;;;;8.27;100.00;97105.73;106169;1278;22709;-75
2023/12/26 00:40:15;;;;;;;7.40;4.70;;;;;;;8.27;100.00;97098.23;106192;1274;22599;-75
2023/12/26 00:42:44;;;;;;;6.10;4.50;;;;;;;8.24;100.00;97105.31;106188;1273;23943;-76
2023/12/26 00:45:13;;;;;;;5.10;4.20;;;;;;;8.27;100.00;97100.20;106189;1284;25442;-75
2023/12/26 00:47:41;;;;;;;7.30;4.40;;;;;;;8.31;100.00;97100.45;106139;1271;22540;-76
2023/12/26 00:50:13;;;;;;;5.50;4.50;;;;;;;8.32;100.00;97100.20;106197;1270;23926;-76
2023/12/26 00:52:43;;;;;;;5.30;4.00;;;;;;;8.31;100.00;97101.89;106233;1284;23545;-75
2023/12/26 00:55:12;;;;;;;6.20;4.60;;;;;;;8.31;100.00;97103.32;106292;1283;22574;-75
2023/12/26 00:57:40;;;;;;;5.20;4.30;;;;;;;8.35;100.00;97105.73;106355;1282;24388;-76
2023/12/26 01:00:09;;;;;;;5.10;4.10;;;;;;;8.36;100.00;97106.27;106546;1282;24278;-74
2023/12/26 01:02:38;;;;;;;5.00;4.30;;;;;;;8.38;100.00;97108.61;106220;1270;24050;-75
2023/12/26 01:05:06;;;;;;;6.20;3.80;;;;;;;8.38;100.00;97102.59;106405;1277;23894;-76
2023/12/26 01:07:34;;;;;;;4.90;3.90;;;;;;;8.40;100.00;97104.44;106685;1280;22794;-75
2023/12/26 01:10:05;;;;;;;6.00;4.40;;;;;;;8.44;100.00;97104.46;106178;1273;22779;-75
2023/12/26 01:12:33;;;;;;;7.40;4.50;;;;;;;8.43;100.00;97105.88;106257;1283;22551;-76
2023/12/26 01:15:02;;;;;;;5.30;4.60;;;;;;;8.42;100.00;97112.88;106319;1283;22479;-78
2023/12/26 01:17:30;;;;;;;5.70;4.30;;;;;;;8.43;100.00;97113.61;106720;1277;24366;-75
2023/12/26 01:19:58;;;;;;;5.20;4.10;;;;;;;8.47;100.00;97117.03;106251;1273;25580;-76
2023/12/26 01:22:26;;;;;;;5.90;3.80;;;;;;;8.48;100.00;97118.99;106350;1282;23890;-81
2023/12/26 01:24:55;;;;;;;4.20;3.80;;;;;;;8.47;100.00;97119.02;106616;1274;22591;-80
2023/12/26 01:27:24;;;;;;;4.50;3.70;;;;;;;8.51;100.00;97115.38;106484;1276;24213;-78
2023/12/26 01:29:52;;;;;;;4.40;3.70;;;;;;;8.54;100.00;97120.56;106223;1268;25552;-78
2023/12/26 01:32:20;;;;;;;5.60;3.90;;;;;;;8.56;100.00;97121.30;106794;1277;22541;-79
2023/12/26 01:34:49;;;;;;;5.40;4.10;;;;;;;8.55;100.00;97119.36;106898;1273;22544;-76
2023/12/26 01:37:17;;;;;;;5.20;4.10;;;;;;;8.53;100.00;97117.80;106751;1282;24330;-74
2023/12/26 01:39:45;;;;;;;5.50;3.90;;;;;;;8.53;100.00;97114.39;106398;1270;22663;-76
2023/12/26 01:42:13;;;;;;;5.80;3.50;;;;;;;8.55;100.00;97113.77;106384;1270;24234;-76
2023/12/26 01:44:41;;;;;;;5.10;4.00;;;;;;;8.54;100.00;97114.88;106522;1279;22705;-76
2023/12/26 01:47:11;;;;;;;5.00;3.30;;;;;;;8.53;100.00;97117.27;106584;1277;25473;-76
2023/12/26 01:49:58;;;;;;;5.90;4.00;;;;;;;8.54;100.00;97115.13;106519;1282;22541;-77
2023/12/26 01:52:28;;;;;;;5.10;3.60;;;;;;;8.57;100.00;97113.41;106348;1282;22580;-78
2023/12/26 01:55:00;;;;;;;3.90;3.30;;;;;;;8.57;100.00;97105.14;106224;1277;25268;-77
2023/12/26 01:57:30;;;;;;;4.80;3.40;;;;;;;8.54;100.00;97096.33;106235;1270;22583;-79
2023/12/26 01:59:59;;;;;;;4.90;3.80;;;;;;;8.54;100.00;97098.16;106660;1272;22614;-79
2023/12/26 02:02:56;;;;;;;4.00;3.40;;;;;;;8.58;100.00;97092.81;106409;1268;22544;-78
2023/12/26 02:05:55;;;;;;;4.20;3.20;;;;;;;8.52;100.00;97078.72;106359;1273;25461;-78
2023/12/26 02:08:58;;;;;;;4.00;3.20;;;;;;;8.53;100.00;97087.27;106680;1277;23658;-78
2023/12/26 02:11:40;;;;;;;4.20;3.00;;;;;;;8.60;100.00;97097.55;106630;1277;22689;-78
2023/12/26 02:14:09;;;;;;;5.50;3.30;;;;;;;8.62;100.00;97097.50;106512;1270;23101;-77
2023/12/26 02:16:43;;;;;;;3.20;2.70;;;;;;;8.62;100.00;97088.84;106275;1272;22588;-79
2023/12/26 02:19:11;;;;;;;3.30;2.90;;;;;;;8.61;100.00;97086.27;106612;1283;25415;-78
2023/12/26 02:21:39;;;;;;;4.10;3.40;;;;;;;8.61;100.00;97084.78;106872;1272;23909;-79
2023/12/26 02:24:07;;;;;;;4.80;3.70;;;;;;;8.65;100.00;97084.81;106971;1274;25379;-78
2023/12/26 02:26:39;;;;;;;4.50;3.60;;;;;;;8.65;100.00;97081.54;106874;1282;23286;-80
2023/12/26 02:29:08;;;;;;;4.60;3.30;;;;;;;8.63;100.00;97080.55;106550;1283;22560;-78
2023/12/26 02:31:39;;;;;;;5.40;3.50;;;;;;;8.64;100.00;97075.20;106623;1284;22543;-79
2023/12/26 02:34:07;;;;;;;3.60;3.20;;;;;;;8.68;100.00;97074.79;106476;1281;23503;-80
2023/12/26 02:36:36;;;;;;;3.50;3.10;;;;;;;8.70;100.00;97076.25;106688;1283;24449;-80
2023/12/26 02:39:04;;;;;;;3.70;3.00;;;;;;;8.68;100.00;97070.29;106437;1276;25267;-78
2023/12/26 02:41:32;;;;;;;4.00;2.90;;;;;;;8.67;100.00;97061.98;106497;1283;22608;-79
2023/12/26 02:44:00;;;;;;;4.20;3.20;;;;;;;8.68;100.00;97059.40;106205;1273;22539;-79
2023/12/26 02:46:27;;;;;;;4.40;3.10;;;;;;;8.68;100.00;97057.44;106371;1273;24305;-79
2023/12/26 02:48:56;;;;;;;4.40;3.00;;;;;;;8.71;100.00;97048.40;106580;1272;22540;-79
2023/12/26 02:51:24;;;;;;;3.20;2.90;;;;;;;8.69;100.00;97045.50;106668;1273;25429;-78
2023/12/26 02:53:52;;;;;;;3.90;3.10;;;;;;;8.67;100.00;97039.42;106719;1283;22672;-79
2023/12/26 02:56:20;;;;;;;3.60;2.80;;;;;;;8.67;100.00;97033.30;106656;1282;22536;-81
2023/12/26 02:58:48;;;;;;;3.60;3.10;;;;;;;8.68;100.00;97032.64;106529;1283;23335;-78
2023/12/26 03:01:16;;;;;;;3.40;3.10;;;;;;;8.64;100.00;97033.38;106681;1272;24364;-80
2023/12/26 03:03:44;;;;;;;3.80;3.10;;;;;;;8.60;100.00;97029.34;106571;1283;23914;-78
2023/12/26 03:06:12;;;;;;;3.80;3.40;;;;;;;8.61;100.00;97025.70;106266;1283;25365;-79
2023/12/26 03:08:40;;;;;;;4.80;3.20;;;;;;;8.62;100.00;97033.14;106670;1277;22562;-80
2023/12/26 03:11:09;;;;;;;3.70;3.30;;;;;;;8.59;100.00;97022.70;106552;1283;22536;-80
2023/12/26 03:13:37;;;;;;;3.30;2.70;;;;;;;8.57;100.00;97032.04;106667;1277;22590;-80
2023/12/26 03:16:05;;;;;;;3.20;2.90;;;;;;;8.59;100.00;97025.55;106575;1283;22551;-79
2023/12/26 03:18:33;;;;;;;3.40;2.70;;;;;;;8.61;100.00;97021.13;106463;1274;24110;-79
2023/12/26 03:21:03;;;;;;;3.60;3.10;;;;;;;8.60;100.00;97019.16;106518;1281;24391;-79
2023/12/26 03:23:31;;;;;;;3.10;2.80;;;;;;;8.59;100.00;97021.56;106426;1283;24299;-79
2023/12/26 03:25:59;;;;;;;3.30;3.00;;;;;;;8.61;100.00;97026.63;106439;1282;25328;-79
2023/12/26 03:28:27;;;;;;;3.10;2.80;;;;;;;8.63;100.00;97029.20;106189;1274;22552;-78
2023/12/26 03:30:55;;;;;;;4.80;3.40;;;;;;;8.63;100.00;97025.52;106327;1283;22534;-79
2023/12/26 03:33:23;;;;;;;4.00;3.20;;;;;;;8.62;100.00;97023.10;106485;1280;22559;-79
2023/12/26 03:35:51;;;;;;;4.00;3.00;;;;;;;8.63;100.00;97019.59;106554;1273;25326;-79
2023/12/26 03:38:19;;;;;;;3.50;3.00;;;;;;;8.65;100.00;97018.09;106561;1282;24368;-79
2023/12/26 03:40:47;;;;;;;4.00;3.20;;;;;;;8.64;100.00;97009.23;106530;1270;22562;-80
2023/12/26 03:43:16;;;;;;;4.10;3.10;;;;;;;8.63;100.00;97008.91;106546;1283;22548;-79
2023/12/26 03:45:45;;;;;;;5.50;2.70;;;;;;;8.63;100.00;97001.81;106746;1283;22609;-78
2023/12/26 03:48:13;;;;;;;3.20;2.70;;;;;;;8.64;100.00;96994.92;106595;1283;24348;-78
2023/12/26 03:50:42;;;;;;;3.70;3.00;;;;;;;8.65;100.00;96988.02;106321;1283;24047;-79
2023/12/26 03:53:10;;;;;;;3.70;3.30;;;;;;;8.63;100.00;96980.10;106635;1283;22790;-79
2023/12/26 03:55:40;;;;;;;4.60;3.00;;;;;;;8.63;100.00;96975.11;106587;1283;24425;-79
2023/12/26 03:58:08;;;;;;;3.60;2.90;;;;;;;8.65;100.00;96972.27;106787;1260;22566;-80
2023/12/26 04:00:36;;;;;;;3.50;3.20;;;;;;;8.67;100.00;96963.31;106571;1283;22530;-79
2023/12/26 04:03:04;;;;;;;4.50;3.40;;;;;;;8.67;100.00;96964.45;106454;1282;24384;-79
2023/12/26 04:05:32;;;;;;;3.80;3.40;;;;;;;8.63;100.00;96972.48;106675;1270;24339;-79
2023/12/26 04:08:00;;;;;;;3.90;3.50;;;;;;;8.63;100.00;96974.80;106623;1272;22541;-78
2023/12/26 04:10:28;;;;;;;6.10;4.00;;;;;;;8.67;100.00;96975.41;106523;1275;22537;-78
2023/12/26 04:12:56;;;;;;;4.80;4.00;;;;;;;8.65;100.00;96965.98;106600;1273;24404;-78
2023/12/26 04:15:24;;;;;;;4.30;3.40;;;;;;;8.65;100.00;96963.69;106469;1283;22551;-79
2023/12/26 04:17:53;;;;;;;5.50;3.30;;;;;;;8.67;100.00;96961.83;106453;1283;25438;-79
2023/12/26 04:20:21;;;;;;;4.50;3.70;;;;;;;8.69;100.00;96950.80;106544;1270;25452;-79
2023/12/26 04:22:49;;;;;;;4.10;3.60;;;;;;;8.71;100.00;96951.71;106554;1283;24412;-79
2023/12/26 04:25:18;;;;;;;4.50;3.80;;;;;;;8.71;100.00;96947.92;106486;1276;22767;-79
2023/12/26 04:27:45;;;;;;;3.50;3.20;;;;;;;8.69;100.00;96950.73;106526;1283;22551;-80
2023/12/26 04:30:16;;;;;;;3.80;3.20;;;;;;;8.72;100.00;96941.85;106474;1277;25265;-79
2023/12/26 04:32:44;;;;;;;3.70;3.40;;;;;;;8.77;100.00;96939.24;106499;1273;25626;-79
2023/12/26 04:35:12;;;;;;;4.20;3.20;;;;;;;8.76;100.00;96927.40;106480;1283;24022;-79
2023/12/26 04:37:40;;;;;;;3.80;3.40;;;;;;;8.75;100.00;96925.27;106468;1277;24223;-78
2023/12/26 04:40:09;;;;;;;4.20;2.90;;;;;;;8.76;100.00;96923.81;106542;1263;22581;-78
2023/12/26 04:42:37;;;;;;;3.30;3.00;;;;;;;8.78;100.00;96925.48;106487;1273;22559;-78
2023/12/26 04:45:05;;;;;;;4.10;3.40;;;;;;;8.78;100.00;96923.77;106427;1283;22558;-79
2023/12/26 04:47:34;;;;;;;7.50;3.50;;;;;;;8.76;100.00;96924.84;106465;1263;22831;-78
2023/12/26 04:50:02;;;;;;;3.30;2.80;;;;;;;8.75;100.00;96921.52;106575;1283;25313;-79
2023/12/26 04:52:30;;;;;;;3.20;2.90;;;;;;;8.76;100.00;96927.23;106469;1278;25441;-78
2023/12/26 04:54:59;;;;;;;4.20;3.10;;;;;;;8.80;100.00;96925.48;106415;1270;22553;-78
2023/12/26 04:57:27;;;;;;;3.80;3.40;;;;;;;8.79;100.00;96921.40;106263;1269;22564;-79
2023/12/26 04:59:55;;;;;;;3.10;2.80;;;;;;;8.77;100.00;96922.37;106552;1280;22900;-78
2023/12/26 05:02:24;;;;;;;3.30;2.80;;;;;;;8.76;100.00;96913.21;106201;1270;25312;-77
2023/12/26 05:04:53;;;;;;;3.50;3.20;;;;;;;8.76;100.00;96910.42;106308;1282;22649;-80
2023/12/26 05:07:21;;;;;;;3.60;3.10;;;;;;;8.75;100.00;96909.73;106531;1283;22572;-79
2023/12/26 05:09:49;;;;;;;4.20;3.10;;;;;;;8.71;100.00;96909.88;106576;1283;26096;-78
2023/12/26 05:12:17;;;;;;;4.60;3.70;;;;;;;8.67;100.00;96904.61;106254;1283;22580;-78
2023/12/26 05:14:45;;;;;;;3.00;2.80;;;;;;;8.68;100.00;96907.96;106186;1274;22578;-79
2023/12/26 05:17:14;;;;;;;3.70;3.20;;;;;;;8.69;100.00;96903.75;106628;1283;24233;-78
2023/12/26 05:19:43;;;;;;;3.70;3.20;;;;;;;8.69;100.00;96895.48;106577;1283;22574;-79
2023/12/26 05:22:12;;;;;;;3.40;2.80;;;;;;;8.68;100.00;96891.31;106580;1270;25397;-78
2023/12/26 05:24:40;;;;;;;3.30;3.00;;;;;;;8.65;100.00;96887.33;106443;1284;24192;-77
2023/12/26 05:27:20;;;;;;;3.50;3.00;;;;;;;8.64;100.00;96885.61;106588;1271;22795;-78
2023/12/26 05:29:48;;;;;;;4.00;3.50;;;;;;;8.66;100.00;96883.06;106191;1277;22546;-78
2023/12/26 05:32:16;;;;;;;3.20;2.90;;;;;;;8.63;100.00;96877.58;106101;1270;23596;-78
2023/12/26 05:34:45;;;;;;;3.30;3.00;;;;;;;8.60;100.00;96876.34;106494;1268;23889;-78
2023/12/26 05:37:13;;;;;;;3.20;2.90;;;;;;;8.54;100.00;96880.24;106199;1272;22553;-80
2023/12/26 05:39:45;;;;;;;3.90;3.50;;;;;;;8.60;100.00;96877.19;106107;1268;25345;-78
2023/12/26 05:42:13;;;;;;;3.70;3.40;;;;;;;8.59;100.00;96878.84;106531;1273;22665;-79
2023/12/26 05:44:41;;;;;;;4.00;3.60;;;;;;;8.57;100.00;96875.39;106520;1276;22688;-78
2023/12/26 05:47:09;;;;;;;2.70;2.50;;;;;;;8.55;100.00;96876.25;106496;1283;24237;-79
2023/12/26 05:49:37;;;;;;;5.40;3.40;;;;;;;8.55;100.00;96867.15;106551;1283;25268;-78
2023/12/26 05:52:06;;;;;;;4.00;3.60;;;;;;;8.55;100.00;96861.85;106535;1283;22648;-79
2023/12/26 05:54:34;;;;;;;3.60;3.30;;;;;;;8.54;100.00;96865.23;106554;1270;24237;-79
2023/12/26 05:57:02;;;;;;;4.10;3.50;;;;;;;8.53;100.00;96866.11;106494;1283;22612;-79
2023/12/26 05:59:32;;;;;;;4.30;3.90;;;;;;;8.53;100.00;96857.20;106570;1270;24065;-80
2023/12/26 06:02:00;;;;;;;4.00;3.50;;;;;;;8.53;100.00;96859.13;106536;1283;25505;-79
2023/12/26 06:04:28;;;;;;;4.60;4.10;;;;;;;8.54;100.00;96852.81;106459;1283;22629;-79
2023/12/26 06:06:56;;;;;;;4.40;3.50;;;;;;;8.55;100.00;96861.91;106499;1270;22541;-79
2023/12/26 06:09:26;;;;;;;6.00;3.70;;;;;;;8.54;100.00;96855.36;106503;1283;23893;-79
2023/12/26 06:11:54;;;;;;;5.00;3.90;;;;;;;8.56;100.00;96847.11;106660;1272;23923;-78
2023/12/26 06:14:24;;;;;;;4.90;3.80;;;;;;;8.60;100.00;96851.45;106439;1284;22999;-79
2023/12/26 06:16:52;;;;;;;4.60;3.80;;;;;;;8.62;100.00;96848.52;106512;1268;22643;-79
2023/12/26 06:19:20;;;;;;;5.20;4.00;;;;;;;8.66;100.00;96861.30;106425;1283;22547;-79
2023/12/26 06:21:49;;;;;;;6.70;4.10;;;;;;;8.69;100.00;96859.66;106690;1276;25518;-79
2023/12/26 06:24:17;;;;;;;5.30;4.30;;;;;;;8.73;100.00;96860.77;106577;1281;24556;-79
2023/12/26 06:26:45;;;;;;;5.20;4.20;;;;;;;8.76;100.00;96859.30;106117;1276;22562;-80
2023/12/26 06:29:13;;;;;;;3.70;3.40;;;;;;;8.74;100.00;96851.78;106207;1283;24411;-79
2023/12/26 06:31:41;;;;;;;3.90;3.50;;;;;;;8.77;100.00;96846.00;106604;1283;22777;-79
2023/12/26 06:34:10;;;;;;;3.40;3.10;;;;;;;8.81;100.00;96857.23;106628;1283;23606;-80
2023/12/26 06:36:38;;;;;;;4.30;3.50;;;;;;;8.80;100.00;96856.91;106538;1270;22533;-79
2023/12/26 06:39:08;;;;;;;5.10;3.60;;;;;;;8.80;100.00;96861.33;106500;1277;23364;-80
2023/12/26 06:41:36;;;;;;;4.60;3.80;;;;;;;8.79;100.00;96862.91;106492;1273;22618;-79
2023/12/26 06:44:04;;;;;;;4.30;3.50;;;;;;;8.81;100.00;96857.92;106548;1283;22665;-80
2023/12/26 06:46:34;;;;;;;3.60;3.20;;;;;;;8.82;100.00;96863.74;106624;1272;22822;-79
2023/12/26 06:49:02;;;;;;;4.30;3.50;;;;;;;8.81;100.00;96856.95;106107;1283;22610;-80
2023/12/26 06:51:30;;;;;;;5.20;3.30;;;;;;;8.83;100.00;96867.85;106785;1269;22717;-79
2023/12/26 06:53:58;;;;;;;4.80;3.80;;;;;;;8.86;100.00;96864.70;107334;1283;25335;-79
2023/12/26 06:56:26;;;;;;;5.10;3.70;;;;;;;8.86;100.00;96876.15;106696;1282;22565;-78
2023/12/26 06:58:57;;;;;;;4.90;3.80;;;;;;;8.89;100.00;96878.94;106662;1283;25431;-80
2023/12/26 07:01:26;;;;;;;5.60;3.90;;;;;;;8.94;100.00;96877.04;106561;1283;24434;-79
2023/12/26 07:03:54;;;;;;;4.90;4.20;;;;;;;8.97;100.00;96881.85;106549;1282;22554;-77
2023/12/26 07:06:23;;;;;;;4.80;3.60;;;;;;;9.00;100.00;96888.15;106506;1282;22553;-78
2023/12/26 07:08:51;;;;;;;4.70;3.60;;;;;;;9.03;100.00;96890.75;106273;1268;24401;-79
2023/12/26 07:11:19;;;;;;;4.40;3.70;;;;;;;9.09;100.00;96894.45;106558;1283;23070;-79
2023/12/26 07:13:47;;;;;;;3.60;3.20;;;;;;;9.19;100.00;96898.59;106529;1270;22563;-79
2023/12/26 07:16:15;;;;;;;4.20;3.80;;;;;;;9.25;100.00;96906.25;106622;1270;22798;-79
2023/12/26 07:18:43;;;;;;;4.10;3.20;;;;;;;9.25;100.00;96905.59;106617;1268;23905;-79
2023/12/26 07:21:13;;;;;;;4.50;3.90;;;;;;;9.34;100.00;96917.48;106568;1283;22546;-79
2023/12/26 07:23:42;;;;;;;3.40;3.10;;;;;;;9.41;100.00;96923.67;106591;1276;22804;-79
2023/12/26 07:26:11;;;;;;;3.90;3.50;;;;;;;9.48;100.00;96931.27;106611;1283;24276;-79
2023/12/26 07:28:39;;;;;;;3.50;3.00;;;;;;;9.52;100.00;96938.70;106591;1273;25264;-78
2023/12/26 07:31:07;;;;;;;3.90;2.80;;;;;;;9.58;100.00;96942.07;106588;1283;24281;-80
2023/12/26 07:33:35;;;;;;;5.70;3.00;;;;;;;9.64;100.00;96935.52;106368;1282;24392;-80
2023/12/26 07:36:09;;;;;;;4.50;3.20;;;;;;;9.70;100.00;96938.72;106591;1270;24331;-79
2023/12/26 07:38:38;;;;;;;;;;;;;;;9.74;100.00;96949.33;106539;1273;23911;-79
2023/12/26 07:41:06;;;;;;;9.80;2.70;;;;;;;9.72;100.00;96939.89;106602;1270;22660;-79
2023/12/26 07:43:34;;;;;;;3.30;2.80;;;;;;;9.79;100.00;96957.34;106665;1282;25559;-79
2023/12/26 07:46:02;;;;;;;4.60;3.20;;;;;;;9.86;100.00;96958.13;106579;1283;22717;-79
2023/12/26 07:48:30;;;;;;;4.70;3.00;;;;;;;9.88;99.83;96956.07;106510;1269;24502;-79
2023/12/26 07:50:59;;;;;;;3.30;3.00;;;;;;;9.89;99.68;96962.34;106528;1276;25440;-78
2023/12/26 07:53:27;;;;;;;3.80;3.30;;;;;;;9.93;99.54;96958.83;106162;1264;25452;-79
2023/12/26 07:55:55;;;;;;;5.10;3.60;;;;;;;9.96;99.39;96969.61;106510;1268;24326;-78
2023/12/26 07:58:23;;;;;;;4.20;3.20;;;;;;;9.95;99.01;96974.27;106572;1279;25515;-78
2023/12/26 08:00:51;;;;;;;5.00;3.60;;;;;;;9.95;99.28;96967.98;106536;1283;22553;-78
2023/12/26 08:03:19;;;;;;;5.10;4.10;;;;;;;9.98;99.24;96966.73;106696;1273;22584;-79
2023/12/26 08:05:47;;;;;;;5.80;4.40;;;;;;;10.01;99.32;96975.48;106319;1275;22562;-78
2023/12/26 08:08:15;;;;;;;6.30;3.70;;;;;;;10.05;98.57;96974.37;106304;1280;25662;-78
2023/12/26 08:10:44;;;;;;;4.40;3.60;;;;;;;10.06;98.17;96975.28;106210;1261;22808;-79
2023/12/26 08:13:13;;;;;;;5.20;4.10;;;;;;;10.09;98.38;96969.85;106264;1280;22544;-78
2023/12/26 08:15:41;;;;;;;4.90;3.50;;;;;;;10.14;98.15;96978.03;106241;1283;22548;-78
2023/12/26 08:18:09;;;;;;;4.60;3.80;;;;;;;10.15;97.93;96980.92;106518;1277;22544;-79
2023/12/26 08:20:38;;;;;;;3.80;3.40;;;;;;;10.17;97.53;96978.06;106504;1283;25442;-78
2023/12/26 08:23:07;;;;;;;3.90;3.30;;;;;;;10.20;97.69;96981.98;106551;1270;24242;-78
2023/12/26 08:25:37;;;;;;;4.70;3.30;;;;;;;10.27;96.94;96978.14;106532;1269;22608;-79
2023/12/26 08:28:06;;;;;;;4.00;3.20;;;;;;;10.31;96.37;96990.62;106625;1280;22543;-78
2023/12/26 08:30:34;;;;;;;4.10;3.60;;;;;;;10.32;95.89;96980.51;106537;1283;24307;-78
2023/12/26 08:33:06;;;;;;;4.60;3.50;;;;;;;10.35;96.36;96977.50;106557;1269;23400;-79
2023/12/26 08:35:35;;;;;;;4.10;3.60;;;;;;;10.39;96.28;96991.15;106619;1283;22705;-79
2023/12/26 08:38:03;;;;;;;4.10;3.50;;;;;;;10.39;95.93;96995.45;106656;1280;25438;-79
2023/12/26 08:40:31;;;;;;;5.40;4.10;;;;;;;10.42;95.33;97000.59;106564;1270;24384;-81
2023/12/26 08:42:59;;;;;;;6.20;4.40;;;;;;;10.47;95.79;97002.70;106521;1273;22666;-80
2023/12/26 08:45:27;;;;;;;5.40;3.70;;;;;;;10.52;95.11;97007.06;106768;1283;22674;-79
2023/12/26 08:48:20;;;;;;;4.70;3.60;;;;;;;10.54;94.59;97000.81;106612;1282;24384;-79
2023/12/26 08:50:48;;;;;;;6.90;5.00;;;;;;;10.55;94.05;97000.66;106512;1277;22711;-80
2023/12/26 08:53:17;;;;;;;6.80;5.10;;;;;;;10.61;94.17;97001.13;106309;1283;24332;-78
2023/12/26 08:55:46;;;;;;;7.30;5.50;;;;;;;10.65;93.50;97008.16;106266;1276;24418;-79
2023/12/26 08:58:15;;;;;;;4.80;3.20;;;;;;;10.65;93.10;97009.70;106400;1273;24534;-79
2023/12/26 09:00:44;;;;;;;5.80;4.70;;;;;;;10.66;92.50;97006.37;106635;1282;24343;-80
2023/12/26 09:03:12;;;;;;;5.70;4.30;;;;;;;10.71;92.16;97000.09;106676;1282;25436;-79
2023/12/26 09:05:42;;;;;;;6.30;5.00;;;;;;;10.73;92.46;96999.85;106542;1268;22554;-79
2023/12/26 09:08:09;;;;;;;5.20;4.50;;;;;;;10.75;91.89;97002.89;106615;1282;22543;-78
2023/12/26 09:10:38;;;;;;;4.50;3.60;;;;;;;10.78;90.62;96999.30;106352;1282;22608;-79
2023/12/26 09:13:06;;;;;;;4.00;3.60;;;;;;;10.78;90.84;97016.70;106455;1269;24297;-80
2023/12/26 09:15:34;;;;;;;5.70;4.50;;;;;;;10.81;91.15;97014.85;106500;1268;23118;-79
2023/12/26 09:18:03;;;;;;;5.10;4.30;;;;;;;10.85;90.97;97012.47;106656;1280;23266;-78
2023/12/26 09:20:31;;;;;;;4.90;3.50;;;;;;;10.87;90.43;97017.70;106640;1271;24236;-78
2023/12/26 09:22:59;;;;;;;4.60;3.50;;;;;;;10.91;90.02;97013.40;106593;1270;24373;-79
2023/12/26 09:25:27;;;;;;;5.60;3.90;;;;;;;10.96;90.02;97015.52;106629;1270;25531;-80
2023/12/26 09:27:55;;;;;;;5.40;3.90;;;;;;;11.01;89.50;97016.98;106686;1282;22640;-78
2023/12/26 09:30:23;;;;;;;4.90;3.60;;;;;;;11.05;89.02;97043.17;106664;1270;25315;-80
2023/12/26 09:32:51;;;;;;;4.70;2.80;;;;;;;11.10;88.14;97041.06;106669;1276;24352;-79
2023/12/26 09:35:19;;;;;;;2.80;2.60;;;;;;;11.13;87.89;97028.33;106463;1275;22552;-80
2023/12/26 09:37:47;;;;;;;4.60;3.70;;;;;;;11.20;88.10;97024.90;106666;1267;24372;-80
2023/12/26 09:40:16;;;;;;;4.50;3.70;;;;;;;11.25;87.86;97014.84;106615;1271;22556;-79
2023/12/26 09:42:44;;;;;;;3.40;2.90;;;;;;;11.27;87.47;97034.20;106598;1269;25735;-78
2023/12/26 09:45:12;;;;;;;3.20;2.90;;;;;;;11.31;86.92;97024.40;106597;1280;25128;-79
2023/12/26 09:47:42;;;;;;;7.60;4.10;;;;;;;11.28;86.98;97030.99;106601;1268;24283;-80
2023/12/26 09:50:10;;;;;;;7.90;5.30;;;;;;;11.27;87.80;97029.57;106559;1283;24232;-80
2023/12/26 09:52:42;;;;;;;4.10;2.70;;;;;;;11.28;87.59;97042.38;106539;1268;98208;-79
2023/12/26 09:55:11;;;;;;;4.30;3.10;;;;;;;11.17;86.80;97046.21;106571;1270;24405;-80
2023/12/26 09:57:42;;;;;;;3.20;2.80;;;;;;;11.07;86.95;97039.10;106612;1282;23941;-80
2023/12/26 10:00:11;;;;;;;4.30;3.50;;;;;;;10.98;87.05;97038.87;106725;1283;23958;-79
2023/12/26 10:02:43;;;;;;;3.10;2.70;;;;;;;10.93;87.79;97034.10;106655;1270;22889;-80
2023/12/26 10:05:11;;;;;;;3.70;2.80;;;;;;;10.90;88.34;97047.42;106704;1270;25513;-80
2023/12/26 10:07:39;;;;;;;3.20;2.90;;;;;;;10.87;87.62;97040.34;106705;1269;23453;-80
2023/12/26 10:10:11;;;;;;;4.30;3.40;;;;;;;10.83;87.22;97036.63;106750;1283;23254;-79
2023/12/26 10:12:40;;;;;;;3.70;3.10;;;;;;;10.78;87.26;97042.19;106662;1282;22941;-78
2023/12/26 10:15:09;;;;;;;5.30;3.90;;;;;;;10.75;87.42;97047.08;106563;1272;24228;-78
2023/12/26 10:17:40;;;;;;;4.50;3.40;;;;;;;10.77;88.17;97049.39;106290;1277;22565;-79
2023/12/26 10:20:14;;;;;;;7.40;4.90;;;;;;;10.78;87.75;97041.02;106853;1283;22536;-79
2023/12/26 10:22:43;;;;;;;6.30;5.50;;;;;;;10.78;87.36;97050.27;106610;1276;22548;-78
2023/12/26 10:25:13;;;;;;;4.70;3.20;;;;;;;10.81;86.71;97048.08;106728;1268;24267;-77
2023/12/26 10:27:52;;;;;;;4.40;3.10;;;;;;;10.83;86.69;97049.63;106639;1270;25268;-76
2023/12/26 10:30:20;;;;;;;6.20;4.10;;;;;;;10.86;87.15;97051.09;106568;1272;25494;-76
2023/12/26 10:32:58;;;;;;;4.10;3.40;;;;;;;10.95;87.03;97066.31;106245;1270;22554;-76
2023/12/26 10:35:27;;;;;;;5.30;4.60;;;;;;;10.98;86.12;97056.26;106282;1283;24065;-78
2023/12/26 10:37:56;;;;;;;4.20;3.20;;;;;;;11.00;86.06;97053.11;106312;1270;25439;-77
2023/12/26 10:40:25;;;;;;;3.60;3.00;;;;;;;11.05;85.38;97083.81;106636;1277;22568;-76
2023/12/26 10:42:56;;;;;;;4.20;3.20;;;;;;;11.10;85.59;97065.96;106626;1268;22704;-77
2023/12/26 10:45:24;;;;;;;3.80;3.20;;;;;;;11.18;85.03;97072.91;106353;1270;24379;-77
2023/12/26 10:47:55;;;;;;;4.20;3.50;;;;;;;11.29;84.34;97066.43;106321;1276;22793;-78
2023/12/26 10:50:26;;;;;;;4.40;3.40;;;;;;;11.30;83.60;97079.49;106482;1282;25353;-80
2023/12/26 10:53:16;;;;;;;4.40;3.30;;;;;;;11.30;83.58;97062.14;106628;1276;26010;-77
2023/12/26 10:55:45;;;;;;;3.10;2.70;;;;;;;11.22;83.40;97073.14;106525;1268;22539;-78
2023/12/26 10:58:31;;;;;;;4.00;2.80;;;;;;;11.17;83.66;97070.63;106659;1273;24166;-77
2023/12/26 11:01:01;;;;;;;3.90;3.20;;;;;;;11.16;83.16;97072.50;106279;1273;25428;-77
2023/12/26 13:52:03;;;;;;;7.30;5.90;;;;;;;9.27;89.23;97222.54;106540;1283;22561;-78
2023/12/26 13:54:31;;;;;;;7.00;5.90;;;;;;;9.28;88.98;97227.20;106551;1280;25312;-78
2023/12/26 13:57:37;;;;;;;7.90;7.00;;;;;;;9.25;88.45;97235.05;106642;1270;23404;-77
2023/12/26 14:00:06;;;;;;;7.00;6.10;;;;;;;9.22;88.71;97236.15;106558;1283;24337;-78
2023/12/26 14:03:20;;;;;;;9.60;7.90;;;;;;;9.24;89.26;97239.98;106483;1283;22555;-78
2023/12/26 14:05:48;;;;;;;10.50;7.80;;;;;;;9.22;89.43;97241.20;106250;1268;25267;-78
2023/12/26 14:08:56;;;;;;;8.80;7.90;;;;;;;9.21;89.09;97245.27;106310;1277;22540;-78
2023/12/26 14:11:26;;;;;;;6.70;5.60;;;;;;;9.17;89.01;97247.08;106304;1273;24369;-76
2023/12/26 14:14:33;;;;;;;9.50;7.00;;;;;;;9.14;89.62;97244.83;106557;1268;23908;-78
2023/12/26 14:17:01;;;;;;;8.90;7.00;;;;;;;9.17;89.66;97247.67;106684;1275;26658;-77
2023/12/26 14:19:29;;;;;;;11.30;8.60;;;;;;;9.16;89.48;97240.21;106288;1277;24220;-81
2023/12/26 14:22:36;;;;;;;8.40;6.60;;;;;;;9.15;89.36;97238.36;106199;1283;25443;-78
2023/12/26 14:25:05;;;;;;;9.90;7.90;;;;;;;9.09;89.33;97244.94;106253;1268;22703;-77
2023/12/26 14:28:10;;;;;;;7.00;6.30;;;;;;;9.09;89.70;97250.15;106227;1271;22549;-77